createdAt,value
2018-01-10T00:00:00.532Z,1007.56
2018-01-10T00:01:10.504Z,1007.57
2018-01-10T00:02:20.464Z,1007.63
2018-01-10T00:03:30.412Z,1007.66
2018-01-10T00:04:40.394Z,1007.64
2018-01-10T00:05:49.829Z,1007.7
2018-01-10T00:06:59.810Z,1007.76
2018-01-10T00:08:09.782Z,1007.82
2018-01-10T00:09:19.491Z,1008.11
2018-01-10T00:10:29.466Z,1008.41
2018-01-10T00:11:39.327Z,1008.26
2018-01-10T00:12:49.283Z,1008.27
2018-01-10T00:13:59.251Z,1008.39
2018-01-10T00:15:09.217Z,1008.42
2018-01-10T00:16:19.183Z,1008.3
2018-01-10T00:17:29.150Z,1008.24
2018-01-10T00:18:38.851Z,1008.17
2018-01-10T00:19:48.291Z,1008.13
2018-01-10T00:20:58.254Z,1008.06
2018-01-10T00:22:07.969Z,1008.04
2018-01-10T00:23:17.929Z,1007.94
2018-01-10T00:24:27.884Z,1007.95
2018-01-10T00:25:37.845Z,1008.03
2018-01-10T00:26:47.824Z,1008.13
2018-01-10T00:27:57.533Z,1008.18
2018-01-10T00:29:07.498Z,1008.2
2018-01-10T00:30:17.217Z,1008.18
2018-01-10T00:31:26.918Z,1008.15
2018-01-10T00:32:36.877Z,1008.11
2018-01-10T00:33:46.589Z,1008.06
2018-01-10T00:34:56.558Z,1007.96
2018-01-10T00:36:06.535Z,1007.92
2018-01-10T00:37:16.507Z,1007.94
2018-01-10T00:38:26.472Z,1007.97
2018-01-10T00:39:36.171Z,1007.96
2018-01-10T00:40:45.610Z,1007.99
2018-01-10T00:41:55.553Z,1008.03
2018-01-10T00:43:05.505Z,1008.06
2018-01-10T00:44:15.454Z,1008.08
2018-01-10T00:45:25.422Z,1008.09
2018-01-10T00:46:35.377Z,1008.12
2018-01-10T00:47:44.807Z,1008.11
2018-01-10T00:48:54.753Z,1008.01
2018-01-10T00:50:04.698Z,1007.97
2018-01-10T00:51:14.639Z,1007.88
2018-01-10T00:52:24.606Z,1007.96
2018-01-10T00:53:34.308Z,1007.99
2018-01-10T00:54:44.270Z,1007.96
2018-01-10T00:55:54.219Z,1007.94
2018-01-10T00:57:04.167Z,1008.02
2018-01-10T00:58:13.351Z,1008.07
2018-01-10T00:59:23.058Z,1008.08
2018-01-10T01:00:32.827Z,1008.11
2018-01-10T01:01:42.282Z,1008.14
2018-01-10T01:02:52.231Z,1008.23
2018-01-10T01:04:01.938Z,1008.23
2018-01-10T01:05:11.900Z,1008.19
2018-01-10T01:06:21.609Z,1008.14
2018-01-10T01:07:31.604Z,1008.12
2018-01-10T01:08:41.570Z,1008.14
2018-01-10T01:09:51.273Z,1008.18
2018-01-10T01:11:01.249Z,1008.17
2018-01-10T01:12:11.224Z,1008.17
2018-01-10T01:13:21.192Z,1008.12
2018-01-10T01:14:31.196Z,1008.07
2018-01-10T01:15:41.170Z,1008.07
2018-01-10T01:16:50.616Z,1007.98
2018-01-10T01:18:00.080Z,1007.93
2018-01-10T01:19:10.033Z,1007.84
2018-01-10T01:20:19.988Z,1007.82
2018-01-10T01:21:29.418Z,1007.74
2018-01-10T01:22:39.113Z,1007.71
2018-01-10T01:23:48.843Z,1007.71
2018-01-10T01:24:58.858Z,1007.74
2018-01-10T01:26:08.871Z,1007.71
2018-01-10T01:27:18.821Z,1007.69
2018-01-10T01:28:29.044Z,1007.79
2018-01-10T01:29:38.990Z,1007.78
2018-01-10T01:30:48.953Z,1007.87
2018-01-10T01:31:58.926Z,1007.89
2018-01-10T01:33:08.877Z,1007.86
2018-01-10T01:34:18.063Z,1007.89
2018-01-10T01:35:28.007Z,1007.79
2018-01-10T01:36:37.968Z,1007.8
2018-01-10T01:37:47.929Z,1007.82
2018-01-10T01:38:58.131Z,1007.84
2018-01-10T01:40:07.835Z,1007.84
2018-01-10T01:41:17.799Z,1007.88
2018-01-10T01:42:27.750Z,1007.86
2018-01-10T01:43:37.742Z,1007.87
2018-01-10T01:44:47.179Z,1007.88
2018-01-10T01:45:57.135Z,1007.86
2018-01-10T01:47:07.105Z,1007.89
2018-01-10T01:48:17.064Z,1007.89
2018-01-10T01:49:26.749Z,1007.96
2018-01-10T01:50:36.719Z,1007.95
2018-01-10T01:51:46.422Z,1008
2018-01-10T01:52:56.135Z,1007.97
2018-01-10T01:54:06.106Z,1007.99
2018-01-10T01:55:15.553Z,1008.01
2018-01-10T01:56:25.525Z,1008.01
2018-01-10T01:57:35.205Z,1008.01
2018-01-10T01:58:45.163Z,1007.99
2018-01-10T01:59:55.116Z,1007.95
2018-01-10T02:01:05.072Z,1007.95
2018-01-10T02:02:15.009Z,1007.89
2018-01-10T02:03:24.953Z,1007.87
2018-01-10T02:04:34.635Z,1007.9
2018-01-10T02:05:44.566Z,1007.89
2018-01-10T02:06:54.265Z,1007.88
2018-01-10T02:08:03.959Z,1007.86
2018-01-10T02:09:13.658Z,1007.84
2018-01-10T02:10:23.612Z,1007.88
2018-01-10T02:11:33.058Z,1007.84
2018-01-10T02:12:43.016Z,1007.83
2018-01-10T02:13:52.962Z,1007.82
2018-01-10T02:15:02.913Z,1007.79
2018-01-10T02:16:12.603Z,1007.73
2018-01-10T02:17:22.575Z,1007.68
2018-01-10T02:18:32.533Z,1007.73
2018-01-10T02:19:42.481Z,1007.67
2018-01-10T02:20:52.179Z,1007.69
2018-01-10T02:22:01.878Z,1007.73
2018-01-10T02:23:11.855Z,1007.69
2018-01-10T02:24:21.817Z,1007.7
2018-01-10T02:25:31.766Z,1007.7
2018-01-10T02:26:41.732Z,1007.71
2018-01-10T02:27:51.416Z,1007.73
2018-01-10T02:29:01.106Z,1007.74
2018-01-10T02:30:10.556Z,1007.72
2018-01-10T02:31:20.530Z,1007.71
2018-01-10T02:32:30.226Z,1007.73
2018-01-10T02:33:40.181Z,1007.74
2018-01-10T02:34:49.614Z,1007.72
2018-01-10T02:35:59.317Z,1007.71
2018-01-10T02:37:09.035Z,1007.74
2018-01-10T02:38:19.005Z,1007.7
2018-01-10T02:39:29.169Z,1007.73
2018-01-10T02:40:39.119Z,1007.74
2018-01-10T02:41:48.844Z,1007.75
2018-01-10T02:42:58.872Z,1007.68
2018-01-10T02:44:08.830Z,1007.7
2018-01-10T02:45:18.792Z,1007.74
2018-01-10T02:46:28.761Z,1007.76
2018-01-10T02:47:38.470Z,1007.73
2018-01-10T02:48:48.427Z,1007.68
2018-01-10T02:49:58.429Z,1007.69
2018-01-10T02:51:08.123Z,1007.72
2018-01-10T02:52:18.065Z,1007.78
2018-01-10T02:53:27.502Z,1007.74
2018-01-10T02:54:37.448Z,1007.79
2018-01-10T02:55:47.148Z,1007.76
2018-01-10T02:56:56.857Z,1007.78
2018-01-10T02:58:06.547Z,1007.71
2018-01-10T02:59:16.238Z,1007.77
2018-01-10T03:00:25.939Z,1007.81
2018-01-10T03:01:35.905Z,1007.8
2018-01-10T03:02:45.855Z,1007.84
2018-01-10T03:03:55.803Z,1007.86
2018-01-10T03:05:05.818Z,1007.78
2018-01-10T03:06:15.517Z,1007.78
2018-01-10T03:07:25.212Z,1007.76
2018-01-10T03:08:35.164Z,1007.8
2018-01-10T03:09:45.127Z,1007.79
2018-01-10T03:10:55.080Z,1007.78
2018-01-10T03:12:04.790Z,1007.8
2018-01-10T03:13:14.734Z,1007.83
2018-01-10T03:14:24.683Z,1007.82
2018-01-10T03:15:34.675Z,1007.86
2018-01-10T03:16:44.618Z,1007.87
2018-01-10T03:17:54.571Z,1007.83
2018-01-10T03:19:04.513Z,1007.83
2018-01-10T03:20:14.216Z,1007.86
2018-01-10T03:21:24.179Z,1007.89
2018-01-10T03:22:34.122Z,1007.88
2018-01-10T03:23:44.063Z,1007.86
2018-01-10T03:24:54.007Z,1007.79
2018-01-10T03:26:03.956Z,1007.8
2018-01-10T03:27:13.901Z,1007.81
2018-01-10T03:28:23.852Z,1007.87
2018-01-10T03:29:33.551Z,1007.85
2018-01-10T03:30:43.236Z,1007.89
2018-01-10T03:31:53.194Z,1007.86
2018-01-10T03:33:03.141Z,1007.89
2018-01-10T03:34:12.568Z,1007.91
2018-01-10T03:35:22.517Z,1007.96
2018-01-10T03:36:32.464Z,1007.96
2018-01-10T03:37:42.151Z,1007.99
2018-01-10T03:38:52.091Z,1007.99
2018-01-10T03:40:01.515Z,1008
2018-01-10T03:41:11.652Z,1007.98
2018-01-10T03:42:21.090Z,1007.96
2018-01-10T03:43:31.089Z,1007.95
2018-01-10T03:44:41.030Z,1007.9
2018-01-10T03:45:50.715Z,1007.88
2018-01-10T03:47:00.674Z,1007.85
2018-01-10T03:48:10.397Z,1007.8
2018-01-10T03:49:20.088Z,1007.83
2018-01-10T03:50:30.042Z,1007.79
2018-01-10T03:51:39.982Z,1007.87
2018-01-10T03:52:49.671Z,1007.89
2018-01-10T03:53:59.621Z,1007.88
2018-01-10T03:55:09.060Z,1007.86
2018-01-10T03:56:18.752Z,1007.8
2018-01-10T03:57:28.711Z,1007.81
2018-01-10T03:58:38.663Z,1007.76
2018-01-10T03:59:48.611Z,1007.71
2018-01-10T04:00:58.293Z,1007.68
2018-01-10T04:02:07.979Z,1007.68
2018-01-10T04:03:17.931Z,1007.68
2018-01-10T04:04:27.898Z,1007.67
2018-01-10T04:05:37.856Z,1007.64
2018-01-10T04:06:47.555Z,1007.59
2018-01-10T04:07:57.296Z,1007.68
2018-01-10T04:09:07.252Z,1007.7
2018-01-10T04:10:16.956Z,1007.71
2018-01-10T04:11:26.644Z,1007.67
2018-01-10T04:12:36.329Z,1007.65
2018-01-10T04:13:46.317Z,1007.66
2018-01-10T04:14:56.296Z,1007.67
2018-01-10T04:16:05.982Z,1007.67
2018-01-10T04:17:15.920Z,1007.7
2018-01-10T04:18:25.604Z,1007.69
2018-01-10T04:19:35.291Z,1007.69
2018-01-10T04:20:45.233Z,1007.71
2018-01-10T04:21:55.180Z,1007.72
2018-01-10T04:23:04.873Z,1007.73
2018-01-10T04:24:14.810Z,1007.77
2018-01-10T04:25:24.754Z,1007.81
2018-01-10T04:26:34.690Z,1007.7
2018-01-10T04:27:44.638Z,1007.72
2018-01-10T04:28:54.323Z,1007.73
2018-01-10T04:30:04.327Z,1007.73
2018-01-10T04:31:14.023Z,1007.7
2018-01-10T04:32:23.721Z,1007.76
2018-01-10T04:33:33.428Z,1007.81
2018-01-10T04:34:43.380Z,1007.87
2018-01-10T04:35:52.807Z,1007.85
2018-01-10T04:37:02.222Z,1007.87
2018-01-10T04:38:11.911Z,1007.87
2018-01-10T04:39:21.592Z,1007.81
2018-01-10T04:40:31.032Z,1007.82
2018-01-10T04:41:40.984Z,1007.78
2018-01-10T04:42:50.668Z,1007.83
2018-01-10T04:44:00.610Z,1007.82
2018-01-10T04:45:10.557Z,1007.86
2018-01-10T04:46:20.553Z,1007.87
2018-01-10T04:47:30.492Z,1007.9
2018-01-10T04:48:40.178Z,1007.85
2018-01-10T04:49:49.881Z,1007.85
2018-01-10T04:50:59.840Z,1007.81
2018-01-10T04:52:09.780Z,1007.79
2018-01-10T04:53:19.733Z,1007.75
2018-01-10T04:54:29.936Z,1007.8
2018-01-10T04:55:39.619Z,1007.8
2018-01-10T04:56:49.311Z,1007.84
2018-01-10T04:57:59.247Z,1007.85
2018-01-10T04:59:08.934Z,1007.82
2018-01-10T05:00:18.935Z,1007.89
2018-01-10T05:01:28.629Z,1007.91
2018-01-10T05:02:38.602Z,1007.94
2018-01-10T05:03:48.695Z,1007.89
2018-01-10T05:04:58.380Z,1007.95
2018-01-10T05:06:08.074Z,1007.96
2018-01-10T05:07:18.026Z,1007.9
2018-01-10T05:08:27.976Z,1007.94
2018-01-10T05:09:37.664Z,1007.91
2018-01-10T05:10:47.613Z,1007.83
2018-01-10T05:11:57.580Z,1007.82
2018-01-10T05:13:07.009Z,1007.74
2018-01-10T05:14:16.965Z,1007.68
2018-01-10T05:15:26.686Z,1007.72
2018-01-10T05:16:36.635Z,1007.71
2018-01-10T05:17:46.331Z,1007.69
2018-01-10T05:18:56.044Z,1007.68
2018-01-10T05:20:05.977Z,1007.65
2018-01-10T05:21:15.917Z,1007.67
2018-01-10T05:22:25.625Z,1007.72
2018-01-10T05:23:35.577Z,1007.66
2018-01-10T05:24:45.269Z,1007.71
2018-01-10T05:25:54.974Z,1007.73
2018-01-10T05:27:04.927Z,1007.8
2018-01-10T05:28:14.867Z,1007.76
2018-01-10T05:29:24.556Z,1007.72
2018-01-10T05:30:34.495Z,1007.72
2018-01-10T05:31:44.432Z,1007.71
2018-01-10T05:32:54.373Z,1007.68
2018-01-10T05:34:04.070Z,1007.7
2018-01-10T05:35:13.769Z,1007.63
2018-01-10T05:36:23.477Z,1007.71
2018-01-10T05:37:33.428Z,1007.7
2018-01-10T05:38:43.367Z,1007.74
2018-01-10T05:39:53.065Z,1007.78
2018-01-10T05:41:03.037Z,1007.76
2018-01-10T05:42:12.991Z,1007.72
2018-01-10T05:43:22.677Z,1007.74
2018-01-10T05:44:32.632Z,1007.72
2018-01-10T05:45:42.919Z,1007.71
2018-01-10T05:46:52.925Z,1007.69
2018-01-10T05:48:02.881Z,1007.67
2018-01-10T05:49:12.575Z,1007.65
2018-01-10T05:50:22.514Z,1007.68
2018-01-10T05:51:32.208Z,1007.64
2018-01-10T05:52:42.153Z,1007.64
2018-01-10T05:53:52.349Z,1007.65
2018-01-10T05:55:02.307Z,1007.62
2018-01-10T05:56:12.008Z,1007.64
2018-01-10T05:57:21.948Z,1007.56
2018-01-10T05:58:31.389Z,1007.55
2018-01-10T05:59:41.340Z,1007.56
2018-01-10T06:00:51.298Z,1007.53
2018-01-10T06:02:01.250Z,1007.55
2018-01-10T06:03:11.201Z,1007.55
2018-01-10T06:04:21.172Z,1007.61
2018-01-10T06:05:31.134Z,1007.64
2018-01-10T06:06:40.576Z,1007.7
2018-01-10T06:07:50.529Z,1007.72
2018-01-10T06:09:00.236Z,1007.85
2018-01-10T06:10:10.196Z,1007.84
2018-01-10T06:11:19.879Z,1007.83
2018-01-10T06:12:29.584Z,1007.77
2018-01-10T06:13:39.654Z,1007.78
2018-01-10T06:14:49.605Z,1007.77
2018-01-10T06:15:59.307Z,1007.76
2018-01-10T06:17:09.260Z,1007.72
2018-01-10T06:18:19.229Z,1007.71
2018-01-10T06:19:29.229Z,1007.68
2018-01-10T06:20:39.168Z,1007.65
2018-01-10T06:21:48.874Z,1007.63
2018-01-10T06:22:58.837Z,1007.63
2018-01-10T06:24:08.535Z,1007.75
2018-01-10T06:25:18.474Z,1007.83
2018-01-10T06:26:28.419Z,1008.02
2018-01-10T06:27:37.856Z,1008.11
2018-01-10T06:28:47.545Z,1008.19
2018-01-10T06:29:57.506Z,1008.19
2018-01-10T06:31:07.452Z,1008.15
2018-01-10T06:32:17.392Z,1008.06
2018-01-10T06:33:27.350Z,1007.96
2018-01-10T06:34:37.031Z,1007.98
2018-01-10T06:35:46.727Z,1007.96
2018-01-10T06:36:56.681Z,1007.98
2018-01-10T06:38:06.465Z,1008
2018-01-10T06:39:16.511Z,1007.97
2018-01-10T06:40:26.454Z,1007.9
2018-01-10T06:41:36.146Z,1007.96
2018-01-10T06:42:46.099Z,1007.97
2018-01-10T06:43:56.068Z,1007.99
2018-01-10T06:45:06.012Z,1008.01
2018-01-10T06:46:16.122Z,1008.04
2018-01-10T06:47:26.080Z,1008.02
2018-01-10T06:48:35.806Z,1008.01
2018-01-10T06:49:45.524Z,1007.99
2018-01-10T06:50:55.472Z,1008.02
2018-01-10T06:52:05.433Z,1008.01
2018-01-10T06:53:15.128Z,1008
2018-01-10T06:54:24.827Z,1008.01
2018-01-10T06:55:34.532Z,1008.02
2018-01-10T06:56:44.483Z,1008.01
2018-01-10T06:57:54.430Z,1008.01
2018-01-10T06:59:04.424Z,1008.06
2018-01-10T07:00:14.121Z,1008.09
2018-01-10T07:01:23.813Z,1008.07
2018-01-10T07:02:33.763Z,1008.05
2018-01-10T07:03:43.495Z,1008.09
2018-01-10T07:04:53.446Z,1008.1
2018-01-10T07:06:03.411Z,1008.07
2018-01-10T07:07:13.419Z,1008.08
2018-01-10T07:08:23.171Z,1008.07
2018-01-10T07:09:33.130Z,1008.06
2018-01-10T07:10:43.092Z,1008.04
2018-01-10T07:11:52.803Z,1008.03
2018-01-10T07:13:02.858Z,1007.97
2018-01-10T07:14:12.644Z,1007.95
2018-01-10T07:15:22.620Z,1007.91
2018-01-10T07:16:32.578Z,1007.88
2018-01-10T07:17:42.277Z,1007.94
2018-01-10T07:18:51.967Z,1007.92
2018-01-10T07:20:01.938Z,1007.97
2018-01-10T07:21:11.629Z,1007.94
2018-01-10T07:22:21.612Z,1007.94
2018-01-10T07:23:31.600Z,1007.95
2018-01-10T07:24:41.287Z,1007.96
2018-01-10T07:25:51.278Z,1007.9
2018-01-10T07:27:01.254Z,1007.88
2018-01-10T07:28:11.223Z,1007.84
2018-01-10T07:29:21.182Z,1007.89
2018-01-10T07:30:31.141Z,1007.8
2018-01-10T07:31:41.093Z,1007.84
2018-01-10T07:32:51.042Z,1007.82
2018-01-10T07:34:01.004Z,1007.79
2018-01-10T07:35:10.731Z,1007.71
2018-01-10T07:36:20.691Z,1007.73
2018-01-10T07:37:30.394Z,1007.8
2018-01-10T07:38:40.343Z,1007.82
2018-01-10T07:39:50.329Z,1007.88
2018-01-10T07:41:00.526Z,1007.92
2018-01-10T07:42:10.586Z,1007.9
2018-01-10T07:43:20.550Z,1007.93
2018-01-10T07:44:30.517Z,1007.91
2018-01-10T07:45:40.492Z,1007.94
2018-01-10T07:46:50.497Z,1007.94
2018-01-10T07:48:00.476Z,1007.96
2018-01-10T07:49:10.496Z,1008.09
2018-01-10T07:50:20.280Z,1008.19
2018-01-10T07:51:30.237Z,1008.3
2018-01-10T07:52:39.962Z,1008.31
2018-01-10T07:53:49.928Z,1008.35
2018-01-10T07:54:59.933Z,1008.32
2018-01-10T07:56:09.905Z,1008.33
2018-01-10T07:57:20.131Z,1008.32
2018-01-10T07:58:30.131Z,1008.3
2018-01-10T07:59:40.113Z,1008.28
2018-01-10T08:00:50.167Z,1008.24
2018-01-10T08:02:00.136Z,1008.24
2018-01-10T08:03:09.850Z,1008.25
2018-01-10T08:04:19.292Z,1008.27
2018-01-10T08:05:29.263Z,1008.27
2018-01-10T08:06:39.229Z,1008.26
2018-01-10T08:07:48.937Z,1008.26
2018-01-10T08:08:58.892Z,1008.25
2018-01-10T08:10:08.586Z,1008.31
2018-01-10T08:11:18.574Z,1008.27
2018-01-10T08:12:28.558Z,1008.28
2018-01-10T08:13:38.573Z,1008.27
2018-01-10T08:14:48.284Z,1008.28
2018-01-10T08:15:58.317Z,1008.28
2018-01-10T08:17:08.031Z,1008.29
2018-01-10T08:18:17.733Z,1008.24
2018-01-10T08:19:27.448Z,1008.21
2018-01-10T08:20:37.137Z,1008.24
2018-01-10T08:21:46.895Z,1008.21
2018-01-10T08:22:56.613Z,1008.25
2018-01-10T08:24:06.563Z,1008.26
2018-01-10T08:25:16.275Z,1008.19
2018-01-10T08:26:26.099Z,1008.17
2018-01-10T08:27:35.544Z,1008.09
2018-01-10T08:28:45.524Z,1008.11
2018-01-10T08:29:55.301Z,1008.11
2018-01-10T08:31:05.009Z,1008.11
2018-01-10T08:32:14.949Z,1008.14
2018-01-10T08:33:24.908Z,1008.14
2018-01-10T08:34:34.608Z,1008.14
2018-01-10T08:35:44.560Z,1008.17
2018-01-10T08:36:54.509Z,1008.16
2018-01-10T08:38:04.473Z,1008.18
2018-01-10T08:39:14.435Z,1008.22
2018-01-10T08:40:24.134Z,1008.24
2018-01-10T08:41:33.815Z,1008.26
2018-01-10T08:42:43.528Z,1008.29
2018-01-10T08:43:53.217Z,1008.31
2018-01-10T08:45:03.290Z,1008.31
2018-01-10T08:46:13.262Z,1008.33
2018-01-10T08:47:23.013Z,1008.28
2018-01-10T08:48:32.960Z,1008.28
2018-01-10T08:49:42.913Z,1008.28
2018-01-10T08:50:52.895Z,1008.33
2018-01-10T08:52:02.859Z,1008.35
2018-01-10T08:53:12.822Z,1008.36
2018-01-10T08:54:22.774Z,1008.33
2018-01-10T08:55:32.479Z,1008.31
2018-01-10T08:56:42.448Z,1008.25
2018-01-10T08:57:52.428Z,1008.2
2018-01-10T08:59:02.388Z,1008.21
2018-01-10T09:00:12.383Z,1008.25
2018-01-10T09:01:22.333Z,1008.33
2018-01-10T09:02:32.286Z,1008.35
2018-01-10T09:03:41.976Z,1008.39
2018-01-10T09:04:51.925Z,1008.42
2018-01-10T09:06:01.884Z,1008.46
2018-01-10T09:07:11.582Z,1008.47
2018-01-10T09:08:21.552Z,1008.42
2018-01-10T09:09:31.243Z,1008.43
2018-01-10T09:10:41.193Z,1008.36
2018-01-10T09:11:51.177Z,1008.26
2018-01-10T09:13:00.931Z,1008.28
2018-01-10T09:14:10.900Z,1008.29
2018-01-10T09:15:20.861Z,1008.28
2018-01-10T09:16:30.836Z,1008.3
2018-01-10T09:17:40.880Z,1008.24
2018-01-10T09:18:50.576Z,1008.26
2018-01-10T09:20:00.540Z,1008.25
2018-01-10T09:21:10.486Z,1008.33
2018-01-10T09:22:20.440Z,1008.33
2018-01-10T09:23:30.416Z,1008.35
2018-01-10T09:24:40.128Z,1008.34
2018-01-10T09:25:49.872Z,1008.4
2018-01-10T09:26:59.828Z,1008.39
2018-01-10T09:28:09.795Z,1008.38
2018-01-10T09:29:19.507Z,1008.41
2018-01-10T09:30:29.223Z,1008.36
2018-01-10T09:31:39.154Z,1008.33
2018-01-10T09:32:49.123Z,1008.35
2018-01-10T09:33:58.563Z,1008.33
2018-01-10T09:35:08.536Z,1008.36
2018-01-10T09:36:18.498Z,1008.39
2018-01-10T09:37:27.984Z,1008.39
2018-01-10T09:38:37.973Z,1008.39
2018-01-10T09:39:47.953Z,1008.41
2018-01-10T09:40:57.914Z,1008.46
2018-01-10T09:42:07.611Z,1008.49
2018-01-10T09:43:17.598Z,1008.5
2018-01-10T09:44:27.545Z,1008.47
2018-01-10T09:45:37.535Z,1008.5
2018-01-10T09:46:47.530Z,1008.49
2018-01-10T09:47:57.512Z,1008.44
2018-01-10T09:49:07.471Z,1008.44
2018-01-10T09:50:17.435Z,1008.4
2018-01-10T09:51:27.405Z,1008.39
2018-01-10T09:52:37.111Z,1008.37
2018-01-10T09:53:47.093Z,1008.34
2018-01-10T09:54:57.118Z,1008.32
2018-01-10T09:56:07.079Z,1008.32
2018-01-10T09:57:16.782Z,1008.31
2018-01-10T09:58:26.736Z,1008.31
2018-01-10T09:59:36.740Z,1008.29
2018-01-10T10:00:46.778Z,1008.32
2018-01-10T10:01:56.478Z,1008.32
2018-01-10T10:03:06.177Z,1008.33
2018-01-10T10:04:16.149Z,1008.31
2018-01-10T10:05:26.208Z,1008.26
2018-01-10T10:06:36.189Z,1008.25
2018-01-10T10:07:45.911Z,1008.3
2018-01-10T10:08:56.077Z,1008.29
2018-01-10T10:10:05.792Z,1008.31
2018-01-10T10:11:15.768Z,1008.33
2018-01-10T10:12:25.744Z,1008.32
2018-01-10T10:13:35.987Z,1008.32
2018-01-10T10:14:46.236Z,1008.33
2018-01-10T10:15:56.239Z,1008.34
2018-01-10T10:17:06.206Z,1008.28
2018-01-10T10:18:16.162Z,1008.25
2018-01-10T10:19:26.149Z,1008.22
2018-01-10T10:20:36.133Z,1008.2
2018-01-10T10:21:46.145Z,1008.07
2018-01-10T10:22:56.112Z,1008.06
2018-01-10T10:24:06.130Z,1008
2018-01-10T10:25:15.330Z,1008.01
2018-01-10T10:26:25.315Z,1007.97
2018-01-10T10:27:35.280Z,1007.99
2018-01-10T10:28:45.257Z,1007.99
2018-01-10T10:29:54.969Z,1007.96
2018-01-10T10:31:04.445Z,1007.93
2018-01-10T10:32:14.437Z,1007.95
2018-01-10T10:33:24.176Z,1007.92
2018-01-10T10:34:33.970Z,1007.87
2018-01-10T10:35:43.610Z,1007.79
2018-01-10T10:36:53.313Z,1007.76
2018-01-10T10:38:02.796Z,1007.77
2018-01-10T10:39:12.740Z,1007.74
2018-01-10T10:40:22.731Z,1007.72
2018-01-10T10:41:32.695Z,1007.7
2018-01-10T10:42:42.402Z,1007.69
2018-01-10T10:43:52.205Z,1007.68
2018-01-10T10:45:02.182Z,1007.63
2018-01-10T10:46:11.897Z,1007.64
2018-01-10T10:47:21.862Z,1007.63
2018-01-10T10:48:31.875Z,1007.59
2018-01-10T10:49:41.843Z,1007.51
2018-01-10T10:50:51.835Z,1007.45
2018-01-10T10:52:01.813Z,1007.42
2018-01-10T10:53:11.802Z,1007.46
2018-01-10T10:54:21.765Z,1007.54
2018-01-10T10:55:31.738Z,1007.55
2018-01-10T10:56:41.692Z,1007.59
2018-01-10T10:57:51.398Z,1007.56
2018-01-10T10:59:01.100Z,1007.55
2018-01-10T11:00:10.818Z,1007.58
2018-01-10T11:01:20.779Z,1007.56
2018-01-10T11:02:30.480Z,1007.55
2018-01-10T11:03:40.514Z,1007.57
2018-01-10T11:04:50.215Z,1007.52
2018-01-10T11:06:00.190Z,1007.58
2018-01-10T11:07:09.897Z,1007.57
2018-01-10T11:08:19.618Z,1007.57
2018-01-10T11:09:29.631Z,1007.59
2018-01-10T11:10:39.633Z,1007.65
2018-01-10T11:11:49.588Z,1007.63
2018-01-10T11:12:59.546Z,1007.66
2018-01-10T11:14:09.261Z,1007.61
2018-01-10T11:15:19.227Z,1007.66
2018-01-10T11:16:28.718Z,1007.62
2018-01-10T11:17:38.473Z,1007.62
2018-01-10T11:18:48.473Z,1007.59
2018-01-10T11:19:58.189Z,1007.64
2018-01-10T11:21:07.937Z,1007.59
2018-01-10T11:22:17.643Z,1007.59
2018-01-10T11:23:27.621Z,1007.55
2018-01-10T11:24:37.575Z,1007.51
2018-01-10T11:25:47.546Z,1007.49
2018-01-10T11:26:57.516Z,1007.53
2018-01-10T11:28:07.554Z,1007.52
2018-01-10T11:29:17.540Z,1007.5
2018-01-10T11:30:27.562Z,1007.47
2018-01-10T11:31:37.615Z,1007.41
2018-01-10T11:32:47.325Z,1007.35
2018-01-10T11:33:57.346Z,1007.38
2018-01-10T11:35:07.339Z,1007.42
2018-01-10T11:36:16.824Z,1007.45
2018-01-10T11:37:26.769Z,1007.43
2018-01-10T11:38:36.470Z,1007.39
2018-01-10T11:39:46.438Z,1007.4
2018-01-10T11:40:56.396Z,1007.39
2018-01-10T11:42:06.376Z,1007.49
2018-01-10T11:43:16.075Z,1007.48
2018-01-10T11:44:26.039Z,1007.43
2018-01-10T11:45:36.000Z,1007.44
2018-01-10T11:46:45.743Z,1007.4
2018-01-10T11:47:55.704Z,1007.37
2018-01-10T11:49:05.704Z,1007.4
2018-01-10T11:50:15.406Z,1007.37
2018-01-10T11:51:25.365Z,1007.39
2018-01-10T11:52:34.786Z,1007.4
2018-01-10T11:53:44.744Z,1007.41
2018-01-10T11:54:54.731Z,1007.41
2018-01-10T11:56:04.712Z,1007.41
2018-01-10T11:57:14.415Z,1007.37
2018-01-10T11:58:23.874Z,1007.38
2018-01-10T11:59:33.323Z,1007.38
2018-01-10T12:00:43.096Z,1007.45
2018-01-10T12:01:53.067Z,1007.43
2018-01-10T12:03:03.033Z,1007.46
2018-01-10T12:04:13.014Z,1007.42
2018-01-10T12:05:22.724Z,1007.37
2018-01-10T12:06:32.461Z,1007.4
2018-01-10T12:07:42.426Z,1007.38
2018-01-10T12:08:52.376Z,1007.42
2018-01-10T12:10:02.094Z,1007.42
2018-01-10T12:11:12.049Z,1007.45
2018-01-10T12:12:22.000Z,1007.42
2018-01-10T12:13:31.959Z,1007.42
2018-01-10T12:14:41.903Z,1007.51
2018-01-10T12:15:51.854Z,1007.52
2018-01-10T12:17:01.565Z,1007.58
2018-01-10T12:18:11.551Z,1007.58
2018-01-10T12:19:21.021Z,1007.58
2018-01-10T12:20:31.087Z,1007.59
2018-01-10T12:21:41.269Z,1007.56
2018-01-10T12:22:50.973Z,1007.58
2018-01-10T12:24:00.664Z,1007.55
2018-01-10T12:25:10.624Z,1007.57
2018-01-10T12:26:20.607Z,1007.56
2018-01-10T12:27:30.586Z,1007.53
2018-01-10T12:28:40.540Z,1007.53
2018-01-10T12:29:50.516Z,1007.51
2018-01-10T12:31:00.482Z,1007.54
2018-01-10T12:32:10.181Z,1007.5
2018-01-10T12:33:19.917Z,1007.53
2018-01-10T12:34:29.660Z,1007.55
2018-01-10T12:35:39.342Z,1007.59
2018-01-10T12:36:49.290Z,1007.59
2018-01-10T12:37:59.249Z,1007.63
2018-01-10T12:39:08.964Z,1007.62
2018-01-10T12:40:18.970Z,1007.57
2018-01-10T12:41:28.686Z,1007.54
2018-01-10T12:42:38.401Z,1007.6
2018-01-10T12:43:48.587Z,1007.56
2018-01-10T12:44:58.309Z,1007.59
2018-01-10T12:46:08.313Z,1007.62
2018-01-10T12:47:18.320Z,1007.62
2018-01-10T12:48:28.328Z,1007.56
2018-01-10T12:49:38.327Z,1007.55
2018-01-10T12:50:48.042Z,1007.55
2018-01-10T12:51:58.024Z,1007.56
2018-01-10T12:53:07.516Z,1007.61
2018-01-10T12:54:17.540Z,1007.61
2018-01-10T12:55:27.525Z,1007.62
2018-01-10T12:56:36.968Z,1007.59
2018-01-10T12:57:46.685Z,1007.57
2018-01-10T12:58:56.639Z,1007.54
2018-01-10T13:00:06.384Z,1007.55
2018-01-10T13:01:16.380Z,1007.56
2018-01-10T13:02:26.099Z,1007.51
2018-01-10T13:03:36.064Z,1007.52
2018-01-10T13:04:46.035Z,1007.54
2018-01-10T13:05:56.015Z,1007.5
2018-01-10T13:07:05.712Z,1007.53
2018-01-10T13:08:15.667Z,1007.55
2018-01-10T13:09:25.409Z,1007.57
2018-01-10T13:10:35.354Z,1007.59
2018-01-10T13:11:45.350Z,1007.64
2018-01-10T13:12:55.341Z,1007.66
2018-01-10T13:14:05.342Z,1007.71
2018-01-10T13:15:15.421Z,1007.65
2018-01-10T13:16:25.131Z,1007.62
2018-01-10T13:17:34.851Z,1007.58
2018-01-10T13:18:44.883Z,1007.61
2018-01-10T13:19:54.655Z,1007.65
2018-01-10T13:21:04.426Z,1007.57
2018-01-10T13:22:14.396Z,1007.57
2018-01-10T13:23:23.905Z,1007.5
2018-01-10T13:24:33.590Z,1007.5
2018-01-10T13:25:43.550Z,1007.52
2018-01-10T13:26:53.513Z,1007.48
2018-01-10T13:28:03.480Z,1007.44
2018-01-10T13:29:13.516Z,1007.5
2018-01-10T13:30:23.278Z,1007.46
2018-01-10T13:31:33.313Z,1007.45
2018-01-10T13:32:43.286Z,1007.46
2018-01-10T13:33:53.004Z,1007.45
2018-01-10T13:35:02.712Z,1007.47
2018-01-10T13:36:12.696Z,1007.47
2018-01-10T13:37:22.420Z,1007.49
2018-01-10T13:38:32.638Z,1007.44
2018-01-10T13:39:42.637Z,1007.47
2018-01-10T13:40:52.621Z,1007.44
2018-01-10T13:42:02.600Z,1007.37
2018-01-10T13:43:12.663Z,1007.42
2018-01-10T13:44:22.638Z,1007.41
2018-01-10T13:45:32.607Z,1007.44
2018-01-10T13:46:42.569Z,1007.42
2018-01-10T13:47:52.028Z,1007.43
2018-01-10T13:49:02.020Z,1007.43
2018-01-10T13:50:11.715Z,1007.41
2018-01-10T13:51:21.211Z,1007.41
2018-01-10T13:52:31.187Z,1007.41
2018-01-10T13:53:40.878Z,1007.4
2018-01-10T13:54:50.828Z,1007.43
2018-01-10T13:56:00.797Z,1007.44
2018-01-10T13:57:10.523Z,1007.48
2018-01-10T13:58:20.496Z,1007.47
2018-01-10T13:59:30.205Z,1007.49
2018-01-10T14:00:39.887Z,1007.54
2018-01-10T14:01:49.844Z,1007.51
2018-01-10T14:02:59.805Z,1007.53
2018-01-10T14:04:09.524Z,1007.58
2018-01-10T14:05:19.559Z,1007.56
2018-01-10T14:06:29.544Z,1007.52
2018-01-10T14:07:39.509Z,1007.57